sensor_id;sensor_type;location;lat;lon;timestamp;pressure;altitude;pressure_sealevel;temperature;humidity
51237;BME280;37312;47.550;18.818;2022-11-20T00:02:09;98749.22;;;-0.27;100.00
51237;BME280;37312;47.550;18.818;2022-11-20T00:04:35;98754.53;;;-0.27;100.00
51237;BME280;37312;47.550;18.818;2022-11-20T00:07:00;98754.78;;;-0.14;100.00
51237;BME280;37312;47.550;18.818;2022-11-20T00:09:26;98755.44;;;-0.12;100.00
51237;BME280;37312;47.550;18.818;2022-11-20T00:11:51;98751.31;;;-0.14;100.00
51237;BME280;37312;47.550;18.818;2022-11-20T00:14:17;98754.78;;;-0.14;100.00
51237;BME280;37312;47.550;18.818;2022-11-20T00:16:43;98750.50;;;-0.15;100.00
51237;BME280;37312;47.550;18.818;2022-11-20T00:19:09;98750.66;;;-0.16;100.00
51237;BME280;37312;47.550;18.818;2022-11-20T00:21:34;98744.34;;;-0.07;100.00
51237;BME280;37312;47.550;18.818;2022-11-20T00:24:00;98742.53;;;-0.07;100.00
51237;BME280;37312;47.550;18.818;2022-11-20T00:26:27;98749.81;;;-0.09;100.00
51237;BME280;37312;47.550;18.818;2022-11-20T00:28:54;98751.47;;;-0.08;100.00
51237;BME280;37312;47.550;18.818;2022-11-20T00:31:20;98737.88;;;-0.05;100.00
51237;BME280;37312;47.550;18.818;2022-11-20T00:33:46;98728.94;;;-0.04;100.00
51237;BME280;37312;47.550;18.818;2022-11-20T00:36:13;98724.94;;;0.01;100.00
51237;BME280;37312;47.550;18.818;2022-11-20T00:38:39;98727.47;;;-0.06;100.00
51237;BME280;37312;47.550;18.818;2022-11-20T00:41:06;98733.75;;;-0.07;100.00
51237;BME280;37312;47.550;18.818;2022-11-20T00:43:32;98755.06;;;-0.01;100.00
51237;BME280;37312;47.550;18.818;2022-11-20T00:46:01;98776.06;;;0.01;100.00
51237;BME280;37312;47.550;18.818;2022-11-20T00:48:27;98777.69;;;0.02;100.00
51237;BME280;37312;47.550;18.818;2022-11-20T00:50:53;98778.88;;;-0.01;100.00
51237;BME280;37312;47.550;18.818;2022-11-20T00:53:19;98776.63;;;-0.12;100.00
51237;BME280;37312;47.550;18.818;2022-11-20T00:55:55;98772.03;;;-0.18;100.00
51237;BME280;37312;47.550;18.818;2022-11-20T00:58:22;98776.16;;;-0.15;100.00
51237;BME280;37312;47.550;18.818;2022-11-20T01:00:48;98776.34;;;-0.25;100.00
51237;BME280;37312;47.550;18.818;2022-11-20T01:03:15;98776.69;;;-0.28;100.00
51237;BME280;37312;47.550;18.818;2022-11-20T01:05:41;98774.06;;;-0.28;100.00
51237;BME280;37312;47.550;18.818;2022-11-20T01:08:07;98775.88;;;-0.29;100.00
51237;BME280;37312;47.550;18.818;2022-11-20T01:10:33;98771.28;;;-0.35;100.00
51237;BME280;37312;47.550;18.818;2022-11-20T01:12:58;98781.37;;;-0.38;100.00
51237;BME280;37312;47.550;18.818;2022-11-20T01:15:43;98773.41;;;-0.30;100.00
51237;BME280;37312;47.550;18.818;2022-11-20T01:18:08;98778.34;;;-0.27;100.00
51237;BME280;37312;47.550;18.818;2022-11-20T01:20:35;98773.91;;;-0.27;100.00
51237;BME280;37312;47.550;18.818;2022-11-20T01:23:01;98784.25;;;-0.17;100.00
51237;BME280;37312;47.550;18.818;2022-11-20T01:25:28;98785.59;;;-0.21;100.00
51237;BME280;37312;47.550;18.818;2022-11-20T01:27:53;98787.44;;;-0.22;100.00
51237;BME280;37312;47.550;18.818;2022-11-20T01:30:19;98779.66;;;-0.23;100.00
51237;BME280;37312;47.550;18.818;2022-11-20T01:32:45;98771.38;;;-0.20;100.00
51237;BME280;37312;47.550;18.818;2022-11-20T01:35:10;98772.03;;;-0.18;100.00
51237;BME280;37312;47.550;18.818;2022-11-20T01:37:36;98766.09;;;-0.20;100.00
51237;BME280;37312;47.550;18.818;2022-11-20T01:40:02;98761.78;;;-0.21;100.00
51237;BME280;37312;47.550;18.818;2022-11-20T01:42:28;98748.84;;;-0.16;100.00
51237;BME280;37312;47.550;18.818;2022-11-20T01:47:56;98757.81;;;-0.25;100.00
51237;BME280;37312;47.550;18.818;2022-11-20T01:50:24;98748.78;;;-0.31;100.00
51237;BME280;37312;47.550;18.818;2022-11-20T01:52:55;98759.50;;;-0.32;100.00
51237;BME280;37312;47.550;18.818;2022-11-20T01:55:27;98748.38;;;-0.19;100.00
51237;BME280;37312;47.550;18.818;2022-11-20T01:57:55;98738.25;;;-0.16;100.00
51237;BME280;37312;47.550;18.818;2022-11-20T02:00:21;98739.09;;;-0.15;100.00
51237;BME280;37312;47.550;18.818;2022-11-20T02:02:54;98743.37;;;-0.14;100.00
51237;BME280;37312;47.550;18.818;2022-11-20T02:07:54;98744.91;;;-0.20;100.00
51237;BME280;37312;47.550;18.818;2022-11-20T02:10:20;98759.13;;;-0.21;100.00
51237;BME280;37312;47.550;18.818;2022-11-20T02:12:46;98757.81;;;-0.25;100.00
51237;BME280;37312;47.550;18.818;2022-11-20T02:15:32;98751.56;;;-0.24;100.00
51237;BME280;37312;47.550;18.818;2022-11-20T02:17:58;98738.63;;;-0.19;100.00
51237;BME280;37312;47.550;18.818;2022-11-20T02:20:24;98733.03;;;-0.24;100.00
51237;BME280;37312;47.550;18.818;2022-11-20T02:22:55;98733.28;;;-0.11;100.00
51237;BME280;37312;47.550;18.818;2022-11-20T02:25:22;98728.16;;;-0.12;100.00
51237;BME280;37312;47.550;18.818;2022-11-20T02:27:50;98730.03;;;-0.21;100.00
51237;BME280;37312;47.550;18.818;2022-11-20T02:30:16;98724.59;;;-0.28;100.00
51237;BME280;37312;47.550;18.818;2022-11-20T02:32:42;98720.31;;;-0.29;100.00
51237;BME280;37312;47.550;18.818;2022-11-20T02:37:47;98710.94;;;-0.08;100.00
51237;BME280;37312;47.550;18.818;2022-11-20T02:40:13;98716.47;;;-0.18;100.00
51237;BME280;37312;47.550;18.818;2022-11-20T02:42:39;98705.91;;;-0.26;100.00
51237;BME280;37312;47.550;18.818;2022-11-20T02:45:05;98716.66;;;-0.28;100.00
51237;BME280;37312;47.550;18.818;2022-11-20T02:47:31;98707.75;;;-0.27;100.00
51237;BME280;37312;47.550;18.818;2022-11-20T02:49:57;98720.47;;;-0.30;100.00
51237;BME280;37312;47.550;18.818;2022-11-20T02:52:23;98729.06;;;-0.28;100.00
51237;BME280;37312;47.550;18.818;2022-11-20T02:54:49;98725.78;;;-0.30;100.00
51237;BME280;37312;47.550;18.818;2022-11-20T02:57:14;98739.16;;;-0.32;100.00
51237;BME280;37312;47.550;18.818;2022-11-20T02:59:40;98742.81;;;-0.33;100.00
51237;BME280;37312;47.550;18.818;2022-11-20T03:02:06;98736.66;;;-0.25;100.00
51237;BME280;37312;47.550;18.818;2022-11-20T03:04:32;98739.78;;;-0.22;100.00
51237;BME280;37312;47.550;18.818;2022-11-20T03:06:57;98728.72;;;-0.25;100.00
51237;BME280;37312;47.550;18.818;2022-11-20T03:09:23;98720.31;;;-0.29;100.00
51237;BME280;37312;47.550;18.818;2022-11-20T03:11:49;98720.13;;;-0.27;100.00
51237;BME280;37312;47.550;18.818;2022-11-20T03:14:14;98719.94;;;-0.17;100.00
51237;BME280;37312;47.550;18.818;2022-11-20T03:16:40;98725.91;;;-0.24;100.00
51237;BME280;37312;47.550;18.818;2022-11-20T03:19:06;98722.16;;;-0.29;100.00
51237;BME280;37312;47.550;18.818;2022-11-20T03:21:34;98730.72;;;-0.27;100.00
51237;BME280;37312;47.550;18.818;2022-11-20T03:24:00;98735.84;;;-0.26;100.00
51237;BME280;37312;47.550;18.818;2022-11-20T03:26:26;98743.09;;;-0.19;100.00
51237;BME280;37312;47.550;18.818;2022-11-20T03:28:57;98747.72;;;-0.22;100.00
51237;BME280;37312;47.550;18.818;2022-11-20T03:31:24;98751.19;;;-0.21;100.00
51237;BME280;37312;47.550;18.818;2022-11-20T03:33:50;98746.72;;;-0.21;100.00
51237;BME280;37312;47.550;18.818;2022-11-20T03:36:17;98757.50;;;-0.22;100.00
51237;BME280;37312;47.550;18.818;2022-11-20T03:38:43;98755.81;;;-0.15;100.00
51237;BME280;37312;47.550;18.818;2022-11-20T03:41:13;98750.50;;;-0.15;100.00
51237;BME280;37312;47.550;18.818;2022-11-20T03:43:39;98763.09;;;-0.17;100.00
51237;BME280;37312;47.550;18.818;2022-11-20T03:46:05;98750.53;;;-0.23;100.00
51237;BME280;37312;47.550;18.818;2022-11-20T03:48:31;98747.06;;;-0.24;100.00
51237;BME280;37312;47.550;18.818;2022-11-20T03:51:10;98750.37;;;-0.22;100.00
51237;BME280;37312;47.550;18.818;2022-11-20T03:53:36;98752.38;;;-0.24;100.00
51237;BME280;37312;47.550;18.818;2022-11-20T03:56:02;98754.03;;;-0.23;100.00
51237;BME280;37312;47.550;18.818;2022-11-20T03:58:28;98756.84;;;-0.24;100.00
51237;BME280;37312;47.550;18.818;2022-11-20T04:00:54;98745.25;;;-0.23;100.00
51237;BME280;37312;47.550;18.818;2022-11-20T04:03:19;98745.25;;;-0.23;100.00
51237;BME280;37312;47.550;18.818;2022-11-20T04:05:45;98745.59;;;-0.26;100.00
51237;BME280;37312;47.550;18.818;2022-11-20T04:08:11;98736.13;;;-0.21;100.00
51237;BME280;37312;47.550;18.818;2022-11-20T04:10:36;98734.34;;;-0.20;100.00
51237;BME280;37312;47.550;18.818;2022-11-20T04:13:03;98725.91;;;-0.24;100.00
51237;BME280;37312;47.550;18.818;2022-11-20T04:15:28;98725.09;;;-0.24;100.00
51237;BME280;37312;47.550;18.818;2022-11-20T04:17:54;98724.53;;;-0.11;100.00
51237;BME280;37312;47.550;18.818;2022-11-20T04:20:20;98712.69;;;-0.01;100.00
51237;BME280;37312;47.550;18.818;2022-11-20T04:22:46;98711.22;;;-0.03;100.00
51237;BME280;37312;47.550;18.818;2022-11-20T04:25:11;98693.62;;;0.04;100.00
51237;BME280;37312;47.550;18.818;2022-11-20T04:27:37;98690.69;;;-0.01;100.00
51237;BME280;37312;47.550;18.818;2022-11-20T04:30:03;98687.69;;;0.02;100.00
51237;BME280;37312;47.550;18.818;2022-11-20T04:32:28;98682.37;;;0.02;100.00
51237;BME280;37312;47.550;18.818;2022-11-20T04:34:54;98700.88;;;0.10;100.00
51237;BME280;37312;47.550;18.818;2022-11-20T04:37:20;98694.16;;;-0.01;100.00
51237;BME280;37312;47.550;18.818;2022-11-20T04:39:45;98681.44;;;-0.05;100.00
51237;BME280;37312;47.550;18.818;2022-11-20T04:42:11;98688.41;;;-0.04;100.00
51237;BME280;37312;47.550;18.818;2022-11-20T04:44:55;98688.88;;;-0.01;100.00
51237;BME280;37312;47.550;18.818;2022-11-20T04:47:21;98678.62;;;-0.04;100.00
51237;BME280;37312;47.550;18.818;2022-11-20T04:49:47;98674.44;;;0.02;100.00
51237;BME280;37312;47.550;18.818;2022-11-20T04:52:12;98674.66;;;0.01;100.00
51237;BME280;37312;47.550;18.818;2022-11-20T04:54:38;98672.66;;;0.03;100.00
51237;BME280;37312;47.550;18.818;2022-11-20T04:57:04;98684.50;;;0.07;100.00
51237;BME280;37312;47.550;18.818;2022-11-20T04:59:29;98678.69;;;0.11;100.00
51237;BME280;37312;47.550;18.818;2022-11-20T05:01:55;98680.50;;;0.11;100.00
51237;BME280;37312;47.550;18.818;2022-11-20T05:04:21;98677.94;;;0.03;100.00
51237;BME280;37312;47.550;18.818;2022-11-20T05:06:46;98676.66;;;-0.02;100.00
51237;BME280;37312;47.550;18.818;2022-11-20T05:09:12;98673.91;;;0.07;100.00
51237;BME280;37312;47.550;18.818;2022-11-20T05:11:38;98683.34;;;0.09;100.00
51237;BME280;37312;47.550;18.818;2022-11-20T05:14:04;98684.88;;;0.04;100.00
51237;BME280;37312;47.550;18.818;2022-11-20T05:16:30;98670.53;;;-0.02;100.00
51237;BME280;37312;47.550;18.818;2022-11-20T05:18:55;98672.53;;;-0.04;100.00
51237;BME280;37312;47.550;18.818;2022-11-20T05:21:21;98663.69;;;0.04;100.00
51237;BME280;37312;47.550;18.818;2022-11-20T05:23:47;98675.22;;;0.11;100.00
51237;BME280;37312;47.550;18.818;2022-11-20T05:26:16;98671.62;;;0.04;100.00
51237;BME280;37312;47.550;18.818;2022-11-20T05:28:42;98670.75;;;0.11;100.00
51237;BME280;37312;47.550;18.818;2022-11-20T05:31:09;98662.06;;;0.03;100.00
51237;BME280;37312;47.550;18.818;2022-11-20T05:33:35;98659.66;;;0.16;100.00
51237;BME280;37312;47.550;18.818;2022-11-20T05:36:02;98658.09;;;0.22;100.00
51237;BME280;37312;47.550;18.818;2022-11-20T05:38:28;98670.25;;;0.31;100.00
51237;BME280;37312;47.550;18.818;2022-11-20T05:40:54;98668.97;;;0.27;100.00
51237;BME280;37312;47.550;18.818;2022-11-20T05:43:19;98672.81;;;0.24;100.00
51237;BME280;37312;47.550;18.818;2022-11-20T05:45:52;98674.03;;;0.13;100.00
51237;BME280;37312;47.550;18.818;2022-11-20T05:48:17;98673.06;;;0.14;100.00
51237;BME280;37312;47.550;18.818;2022-11-20T05:50:43;98682.63;;;0.15;100.00
51237;BME280;37312;47.550;18.818;2022-11-20T05:53:09;98688.94;;;0.14;100.00
51237;BME280;37312;47.550;18.818;2022-11-20T05:55:34;98676.22;;;0.10;100.00
51237;BME280;37312;47.550;18.818;2022-11-20T05:58:00;98689.91;;;0.13;100.00
51237;BME280;37312;47.550;18.818;2022-11-20T06:00:25;98685.62;;;0.12;100.00
51237;BME280;37312;47.550;18.818;2022-11-20T06:02:51;98687.94;;;0.15;100.00
51237;BME280;37312;47.550;18.818;2022-11-20T06:05:17;98683.16;;;0.11;100.00
51237;BME280;37312;47.550;18.818;2022-11-20T06:07:42;98684.34;;;0.08;100.00
51237;BME280;37312;47.550;18.818;2022-11-20T06:10:08;98688.25;;;0.20;100.00
51237;BME280;37312;47.550;18.818;2022-11-20T06:12:34;98697.69;;;0.15;100.00
51237;BME280;37312;47.550;18.818;2022-11-20T06:15:00;98692.78;;;0.12;100.00
51237;BME280;37312;47.550;18.818;2022-11-20T06:17:26;98684.63;;;0.13;100.00
51237;BME280;37312;47.550;18.818;2022-11-20T06:19:51;98686.00;;;0.09;100.00
51237;BME280;37312;47.550;18.818;2022-11-20T06:22:17;98696.88;;;0.14;100.00
51237;BME280;37312;47.550;18.818;2022-11-20T06:24:43;98688.78;;;0.16;100.00
51237;BME280;37312;47.550;18.818;2022-11-20T06:27:08;98691.59;;;0.14;100.00
51237;BME280;37312;47.550;18.818;2022-11-20T06:29:34;98697.34;;;0.18;100.00
51237;BME280;37312;47.550;18.818;2022-11-20T06:32:00;98696.09;;;0.29;100.00
51237;BME280;37312;47.550;18.818;2022-11-20T06:34:26;98694.50;;;0.43;100.00
51237;BME280;37312;47.550;18.818;2022-11-20T06:36:52;98695.44;;;0.50;100.00
51237;BME280;37312;47.550;18.818;2022-11-20T06:39:17;98698.19;;;0.56;100.00
51237;BME280;37312;47.550;18.818;2022-11-20T06:41:43;98705.31;;;0.56;100.00
51237;BME280;37312;47.550;18.818;2022-11-20T06:44:09;98703.84;;;0.53;100.00
51237;BME280;37312;47.550;18.818;2022-11-20T06:46:34;98715.81;;;0.49;100.00
51237;BME280;37312;47.550;18.818;2022-11-20T06:49:00;98724.12;;;0.46;100.00
51237;BME280;37312;47.550;18.818;2022-11-20T06:51:26;98728.78;;;0.44;100.00
51237;BME280;37312;47.550;18.818;2022-11-20T06:53:51;98732.25;;;0.45;100.00
51237;BME280;37312;47.550;18.818;2022-11-20T06:56:18;98730.53;;;0.52;100.00
51237;BME280;37312;47.550;18.818;2022-11-20T06:58:44;98728.53;;;0.54;100.00
51237;BME280;37312;47.550;18.818;2022-11-20T07:01:10;98732.41;;;0.66;100.00
51237;BME280;37312;47.550;18.818;2022-11-20T07:03:36;98735.41;;;0.63;100.00
51237;BME280;37312;47.550;18.818;2022-11-20T07:06:02;98740.53;;;0.65;100.00
51237;BME280;37312;47.550;18.818;2022-11-20T07:08:28;98734.75;;;0.61;100.00
51237;BME280;37312;47.550;18.818;2022-11-20T07:13:20;98734.75;;;0.61;100.00
51237;BME280;37312;47.550;18.818;2022-11-20T07:15:45;98744.91;;;0.57;100.00
51237;BME280;37312;47.550;18.818;2022-11-20T07:18:11;98742.84;;;0.45;100.00
51237;BME280;37312;47.550;18.818;2022-11-20T07:20:37;98740.56;;;0.41;100.00
51237;BME280;37312;47.550;18.818;2022-11-20T07:23:02;98752.25;;;0.47;100.00
51237;BME280;37312;47.550;18.818;2022-11-20T07:25:28;98753.38;;;0.53;100.00
51237;BME280;37312;47.550;18.818;2022-11-20T07:27:57;98747.44;;;0.51;100.00
51237;BME280;37312;47.550;18.818;2022-11-20T07:30:23;98739.59;;;0.57;100.00
51237;BME280;37312;47.550;18.818;2022-11-20T07:32:52;98731.09;;;0.62;100.00
51237;BME280;37312;47.550;18.818;2022-11-20T07:35:18;98721.59;;;0.53;100.00
51237;BME280;37312;47.550;18.818;2022-11-20T07:37:44;98727.06;;;0.51;100.00
51237;BME280;37312;47.550;18.818;2022-11-20T07:40:14;98713.53;;;0.61;100.00
51237;BME280;37312;47.550;18.818;2022-11-20T07:42:47;98715.31;;;0.69;100.00
51237;BME280;37312;47.550;18.818;2022-11-20T07:45:13;98717.25;;;0.90;100.00
51237;BME280;37312;47.550;18.818;2022-11-20T07:47:39;98717.94;;;1.07;100.00
51237;BME280;37312;47.550;18.818;2022-11-20T07:50:04;98715.38;;;1.13;100.00
51237;BME280;37312;47.550;18.818;2022-11-20T07:52:30;98717.28;;;1.19;100.00
51237;BME280;37312;47.550;18.818;2022-11-20T07:54:56;98723.06;;;1.23;100.00
51237;BME280;37312;47.550;18.818;2022-11-20T07:57:22;98716.56;;;1.25;100.00
51237;BME280;37312;47.550;18.818;2022-11-20T07:59:48;98724.44;;;1.34;100.00
51237;BME280;37312;47.550;18.818;2022-11-20T08:02:13;98722.88;;;1.39;100.00
51237;BME280;37312;47.550;18.818;2022-11-20T08:04:39;98718.38;;;1.55;100.00
51237;BME280;37312;47.550;18.818;2022-11-20T08:07:05;98731.72;;;1.61;100.00
51237;BME280;37312;47.550;18.818;2022-11-20T08:09:31;98735.37;;;1.60;100.00
51237;BME280;37312;47.550;18.818;2022-11-20T08:11:56;98737.47;;;1.65;100.00
51237;BME280;37312;47.550;18.818;2022-11-20T08:14:40;98736.09;;;1.69;100.00
51237;BME280;37312;47.550;18.818;2022-11-20T08:17:06;98733.25;;;1.85;100.00
51237;BME280;37312;47.550;18.818;2022-11-20T08:19:32;98731.66;;;1.91;100.00
51237;BME280;37312;47.550;18.818;2022-11-20T08:21:58;98734.09;;;2.07;100.00
51237;BME280;37312;47.550;18.818;2022-11-20T08:24:23;98730.28;;;2.17;100.00
51237;BME280;37312;47.550;18.818;2022-11-20T08:26:51;98732.44;;;2.28;100.00
51237;BME280;37312;47.550;18.818;2022-11-20T08:29:17;98741.44;;;2.48;100.00
51237;BME280;37312;47.550;18.818;2022-11-20T08:31:43;98745.25;;;2.61;100.00
51237;BME280;37312;47.550;18.818;2022-11-20T08:34:09;98740.00;;;2.67;100.00
51237;BME280;37312;47.550;18.818;2022-11-20T08:36:35;98737.69;;;2.86;100.00
51237;BME280;37312;47.550;18.818;2022-11-20T08:39:01;98738.16;;;2.96;100.00
51237;BME280;37312;47.550;18.818;2022-11-20T08:41:28;98741.75;;;3.10;100.00
51237;BME280;37312;47.550;18.818;2022-11-20T08:43:57;98748.34;;;3.21;100.00
51237;BME280;37312;47.550;18.818;2022-11-20T08:46:24;98754.34;;;3.29;100.00
51237;BME280;37312;47.550;18.818;2022-11-20T08:48:49;98758.25;;;3.33;100.00
51237;BME280;37312;47.550;18.818;2022-11-20T08:51:15;98756.97;;;3.23;100.00
51237;BME280;37312;47.550;18.818;2022-11-20T08:53:41;98757.25;;;3.06;100.00
51237;BME280;37312;47.550;18.818;2022-11-20T08:56:07;98760.91;;;2.99;100.00
51237;BME280;37312;47.550;18.818;2022-11-20T08:58:35;98766.34;;;2.90;100.00
51237;BME280;37312;47.550;18.818;2022-11-20T09:01:01;98766.69;;;2.81;100.00
51237;BME280;37312;47.550;18.818;2022-11-20T09:03:26;98770.59;;;2.85;100.00
51237;BME280;37312;47.550;18.818;2022-11-20T09:05:59;98765.28;;;2.85;100.00
51237;BME280;37312;47.550;18.818;2022-11-20T09:08:25;98770.94;;;2.75;100.00
51237;BME280;37312;47.550;18.818;2022-11-20T09:10:52;98771.06;;;2.67;100.00
51237;BME280;37312;47.550;18.818;2022-11-20T09:13:18;98774.50;;;2.61;100.00
51237;BME280;37312;47.550;18.818;2022-11-20T09:15:44;98763.69;;;2.62;100.00
51237;BME280;37312;47.550;18.818;2022-11-20T09:18:10;98779.06;;;2.67;100.00
51237;BME280;37312;47.550;18.818;2022-11-20T09:20:35;98784.97;;;2.69;100.00
51237;BME280;37312;47.550;18.818;2022-11-20T09:23:01;98781.66;;;2.60;100.00
51237;BME280;37312;47.550;18.818;2022-11-20T09:25:27;98774.84;;;2.58;100.00
51237;BME280;37312;47.550;18.818;2022-11-20T09:27:59;98779.63;;;2.62;100.00
51237;BME280;37312;47.550;18.818;2022-11-20T09:30:25;98778.47;;;2.71;100.00
51237;BME280;37312;47.550;18.818;2022-11-20T09:32:51;98779.66;;;2.90;100.00
51237;BME280;37312;47.550;18.818;2022-11-20T09:35:17;98769.75;;;3.06;100.00
51237;BME280;37312;47.550;18.818;2022-11-20T09:37:43;98773.09;;;3.15;100.00
51237;BME280;37312;47.550;18.818;2022-11-20T09:40:17;98776.41;;;3.23;100.00
51237;BME280;37312;47.550;18.818;2022-11-20T09:43:46;98769.19;;;3.45;100.00
51237;BME280;37312;47.550;18.818;2022-11-20T09:45:56;98778.81;;;3.46;100.00
51237;BME280;37312;47.550;18.818;2022-11-20T09:50:55;98779.94;;;3.65;100.00
51237;BME280;37312;47.550;18.818;2022-11-20T09:54:11;98783.50;;;3.79;100.00
51237;BME280;37312;47.550;18.818;2022-11-20T09:56:08;98784.38;;;3.93;100.00
51237;BME280;37312;47.550;18.818;2022-11-20T09:58:39;98777.22;;;4.00;100.00
51237;BME280;37312;47.550;18.818;2022-11-20T10:01:12;98783.84;;;4.17;100.00
51237;BME280;37312;47.550;18.818;2022-11-20T10:03:56;98778.94;;;4.14;100.00
51237;BME280;37312;47.550;18.818;2022-11-20T10:06:26;98773.84;;;4.26;100.00
51237;BME280;37312;47.550;18.818;2022-11-20T10:09:00;98774.47;;;4.35;100.00
51237;BME280;37312;47.550;18.818;2022-11-20T10:11:33;98767.75;;;4.46;100.00
51237;BME280;37312;47.550;18.818;2022-11-20T10:21:41;98738.00;;;4.55;100.00
51237;BME280;37312;47.550;18.818;2022-11-20T10:27:01;98731.09;;;6.18;100.00
51237;BME280;37312;47.550;18.818;2022-11-20T10:29:34;98734.69;;;7.56;100.00
51237;BME280;37312;47.550;18.818;2022-11-20T10:32:03;98735.66;;;8.28;100.00
51237;BME280;37312;47.550;18.818;2022-11-20T10:36:59;98739.88;;;8.36;100.00
51237;BME280;37312;47.550;18.818;2022-11-20T10:39:39;98734.31;;;7.52;100.00
51237;BME280;37312;47.550;18.818;2022-11-20T10:42:08;98733.31;;;6.84;100.00
51237;BME280;37312;47.550;18.818;2022-11-20T10:44:36;98729.53;;;6.35;100.00
51237;BME280;37312;47.550;18.818;2022-11-20T10:47:21;98728.97;;;5.88;100.00
51237;BME280;37312;47.550;18.818;2022-11-20T10:49:51;98724.75;;;5.47;100.00
51237;BME280;37312;47.550;18.818;2022-11-20T10:54:54;98715.84;;;5.73;100.00
51237;BME280;37312;47.550;18.818;2022-11-20T10:57:29;98711.34;;;5.67;100.00
51237;BME280;37312;47.550;18.818;2022-11-20T11:02:29;98716.59;;;5.35;100.00
51237;BME280;37312;47.550;18.818;2022-11-20T11:04:56;98710.44;;;5.28;100.00
51237;BME280;37312;47.550;18.818;2022-11-20T11:07:27;98726.25;;;5.30;100.00
51237;BME280;37312;47.550;18.818;2022-11-20T11:09:56;98729.75;;;5.23;100.00
51237;BME280;37312;47.550;18.818;2022-11-20T11:12:24;98736.53;;;5.13;100.00
51237;BME280;37312;47.550;18.818;2022-11-20T11:14:54;98742.09;;;5.18;100.00
51237;BME280;37312;47.550;18.818;2022-11-20T11:17:22;98736.69;;;5.38;100.00
51237;BME280;37312;47.550;18.818;2022-11-20T11:22:53;98736.09;;;5.36;100.00
51237;BME280;37312;47.550;18.818;2022-11-20T11:27:49;98748.12;;;5.65;100.00
51237;BME280;37312;47.550;18.818;2022-11-20T11:30:16;98754.53;;;5.57;100.00
51237;BME280;37312;47.550;18.818;2022-11-20T11:32:42;98757.19;;;5.71;100.00
51237;BME280;37312;47.550;18.818;2022-11-20T11:35:22;98739.06;;;5.79;100.00
51237;BME280;37312;47.550;18.818;2022-11-20T11:37:48;98739.03;;;5.86;100.00
51237;BME280;37312;47.550;18.818;2022-11-20T11:40:14;98735.97;;;5.76;100.00
51237;BME280;37312;47.550;18.818;2022-11-20T11:42:44;98732.09;;;5.65;100.00
51237;BME280;37312;47.550;18.818;2022-11-20T11:45:14;98738.50;;;5.57;100.00
51237;BME280;37312;47.550;18.818;2022-11-20T11:53:17;98732.62;;;5.22;100.00
51237;BME280;37312;47.550;18.818;2022-11-20T11:55:31;98724.06;;;5.07;100.00
51237;BME280;37312;47.550;18.818;2022-11-20T12:00:57;98720.16;;;4.89;100.00
51237;BME280;37312;47.550;18.818;2022-11-20T12:03:28;98712.34;;;4.81;100.00
51237;BME280;37312;47.550;18.818;2022-11-20T12:05:59;98718.50;;;4.95;100.00
51237;BME280;37312;47.550;18.818;2022-11-20T12:08:31;98699.19;;;4.93;100.00
51237;BME280;37312;47.550;18.818;2022-11-20T12:16:02;98703.13;;;4.57;100.00
51237;BME280;37312;47.550;18.818;2022-11-20T12:18:28;98710.28;;;4.43;100.00
51237;BME280;37312;47.550;18.818;2022-11-20T12:21:00;98720.13;;;4.49;100.00
51237;BME280;37312;47.550;18.818;2022-11-20T12:23:28;98716.88;;;4.60;100.00
51237;BME280;37312;47.550;18.818;2022-11-20T12:25:56;98706.00;;;4.55;100.00
51237;BME280;37312;47.550;18.818;2022-11-20T12:31:14;98701.69;;;4.41;100.00
51237;BME280;37312;47.550;18.818;2022-11-20T12:33:48;98689.56;;;4.45;100.00
51237;BME280;37312;47.550;18.818;2022-11-20T12:36:22;98680.94;;;4.43;100.00
51237;BME280;37312;47.550;18.818;2022-11-20T12:53:02;98679.94;;;4.51;100.00
51237;BME280;37312;47.550;18.818;2022-11-20T12:55:45;98672.94;;;4.70;100.00
51237;BME280;37312;47.550;18.818;2022-11-20T13:00:38;98676.44;;;4.70;100.00
51237;BME280;37312;47.550;18.818;2022-11-20T13:05:47;98680.75;;;4.71;100.00
51237;BME280;37312;47.550;18.818;2022-11-20T13:10:49;98678.91;;;4.85;100.00
51237;BME280;37312;47.550;18.818;2022-11-20T13:13:25;98674.37;;;4.79;100.00
51237;BME280;37312;47.550;18.818;2022-11-20T13:16:06;98674.19;;;4.80;100.00
51237;BME280;37312;47.550;18.818;2022-11-20T13:18:38;98673.75;;;4.77;100.00
51237;BME280;37312;47.550;18.818;2022-11-20T13:21:15;98679.94;;;4.71;100.00
51237;BME280;37312;47.550;18.818;2022-11-20T13:23:41;98680.34;;;4.61;100.00
51237;BME280;37312;47.550;18.818;2022-11-20T13:26:19;98681.56;;;4.52;100.00
51237;BME280;37312;47.550;18.818;2022-11-20T13:28:47;98678.72;;;4.47;100.00
51237;BME280;37312;47.550;18.818;2022-11-20T13:31:29;98672.94;;;4.43;100.00
51237;BME280;37312;47.550;18.818;2022-11-20T13:33:55;98675.41;;;4.38;100.00
51237;BME280;37312;47.550;18.818;2022-11-20T13:36:23;98684.63;;;4.29;100.00
51237;BME280;37312;47.550;18.818;2022-11-20T13:38:50;98673.75;;;4.17;100.00
51237;BME280;37312;47.550;18.818;2022-11-20T13:41:26;98678.28;;;4.16;100.00
51237;BME280;37312;47.550;18.818;2022-11-20T13:44:05;98670.50;;;4.22;100.00
51237;BME280;37312;47.550;18.818;2022-11-20T13:46:35;98666.38;;;4.19;100.00
51237;BME280;37312;47.550;18.818;2022-11-20T13:49:05;98664.50;;;4.06;100.00
51237;BME280;37312;47.550;18.818;2022-11-20T13:51:51;98653.84;;;4.06;100.00
51237;BME280;37312;47.550;18.818;2022-11-20T13:54:31;98657.13;;;4.02;100.00
51237;BME280;37312;47.550;18.818;2022-11-20T13:57:07;98651.19;;;4.06;100.00
51237;BME280;37312;47.550;18.818;2022-11-20T14:02:13;98651.75;;;3.88;100.00
51237;BME280;37312;47.550;18.818;2022-11-20T14:04:42;98647.47;;;3.81;100.00
51237;BME280;37312;47.550;18.818;2022-11-20T14:07:08;98649.09;;;3.82;100.00